sensor_id;sensor_type;location;lat;lon;timestamp;pressure;altitude;pressure_sealevel;temperature;humidity
65359;BME280;52491;45.900;6.346;2022-08-27T00:00:40;93642.47;;;27.62;39.61
65359;BME280;52491;45.900;6.346;2022-08-27T00:03:06;93654.25;;;27.61;39.67
65359;BME280;52491;45.900;6.346;2022-08-27T00:05:32;93632.63;;;27.58;39.60
65359;BME280;52491;45.900;6.346;2022-08-27T00:07:57;93643.25;;;27.63;39.58
65359;BME280;52491;45.900;6.346;2022-08-27T00:10:25;93641.69;;;27.62;39.68
65359;BME280;52491;45.900;6.346;2022-08-27T00:12:52;93632.56;;;27.63;39.45
65359;BME280;52491;45.900;6.346;2022-08-27T00:15:18;93634.44;;;27.62;39.50
65359;BME280;52491;45.900;6.346;2022-08-27T00:17:45;93636.81;;;27.64;39.44
65359;BME280;52491;45.900;6.346;2022-08-27T00:20:13;93635.50;;;27.61;39.47
65359;BME280;52491;45.900;6.346;2022-08-27T00:22:38;93639.28;;;27.60;39.56
65359;BME280;52491;45.900;6.346;2022-08-27T00:25:05;93640.38;;;27.59;39.41
65359;BME280;52491;45.900;6.346;2022-08-27T00:27:31;93638.75;;;27.58;39.43
65359;BME280;52491;45.900;6.346;2022-08-27T00:29:57;93639.59;;;27.59;39.50
65359;BME280;52491;45.900;6.346;2022-08-27T00:32:22;93637.69;;;27.59;39.29
65359;BME280;52491;45.900;6.346;2022-08-27T00:34:48;93637.69;;;27.59;39.32
65359;BME280;52491;45.900;6.346;2022-08-27T00:37:14;93641.16;;;27.60;39.35
65359;BME280;52491;45.900;6.346;2022-08-27T00:39:39;93640.06;;;27.61;39.57
65359;BME280;52491;45.900;6.346;2022-08-27T00:42:06;93636.91;;;27.59;39.18
65359;BME280;52491;45.900;6.346;2022-08-27T00:44:32;93645.44;;;27.61;39.37
65359;BME280;52491;45.900;6.346;2022-08-27T00:47:02;93645.44;;;27.61;39.25
65359;BME280;52491;45.900;6.346;2022-08-27T00:54:38;93644.41;;;27.57;39.30
65359;BME280;52491;45.900;6.346;2022-08-27T00:57:04;93643.31;;;27.58;39.20
65359;BME280;52491;45.900;6.346;2022-08-27T00:59:30;93652.47;;;27.57;39.02
65359;BME280;52491;45.900;6.346;2022-08-27T01:01:57;93651.66;;;27.56;39.06
65359;BME280;52491;45.900;6.346;2022-08-27T01:04:42;93649.63;;;27.48;39.41
65359;BME280;52491;45.900;6.346;2022-08-27T01:07:10;93651.41;;;27.53;39.13
65359;BME280;52491;45.900;6.346;2022-08-27T01:09:36;93653.31;;;27.52;39.27
65359;BME280;52491;45.900;6.346;2022-08-27T01:12:03;93649.84;;;27.52;39.46
65359;BME280;52491;45.900;6.346;2022-08-27T01:14:29;93652.25;;;27.53;39.16
65359;BME280;52491;45.900;6.346;2022-08-27T01:16:56;93644.69;;;27.55;39.36
65359;BME280;52491;45.900;6.346;2022-08-27T01:19:34;93645.00;;;27.54;39.11
65359;BME280;52491;45.900;6.346;2022-08-27T01:22:08;93648.47;;;27.54;38.76
65359;BME280;52491;45.900;6.346;2022-08-27T01:24:44;93644.47;;;27.52;39.06
65359;BME280;52491;45.900;6.346;2022-08-27T01:27:13;93641.81;;;27.52;39.08
65359;BME280;52491;45.900;6.346;2022-08-27T01:29:41;93635.94;;;27.50;39.10
65359;BME280;52491;45.900;6.346;2022-08-27T01:32:22;93631.69;;;27.49;39.02
65359;BME280;52491;45.900;6.346;2022-08-27T01:34:49;93632.47;;;27.49;39.01
65359;BME280;52491;45.900;6.346;2022-08-27T01:37:16;93625.53;;;27.48;39.12
65359;BME280;52491;45.900;6.346;2022-08-27T01:39:42;93629.78;;;27.49;39.17
65359;BME280;52491;45.900;6.346;2022-08-27T01:42:13;93632.47;;;27.49;39.18
65359;BME280;52491;45.900;6.346;2022-08-27T01:44:46;93629.78;;;27.49;39.17
65359;BME280;52491;45.900;6.346;2022-08-27T01:47:13;93622.84;;;27.48;38.78
65359;BME280;52491;45.900;6.346;2022-08-27T01:49:39;93627.91;;;27.50;38.92
65359;BME280;52491;45.900;6.346;2022-08-27T01:52:05;93620.66;;;27.50;39.05
65359;BME280;52491;45.900;6.346;2022-08-27T01:54:31;93617.19;;;27.50;39.10
65359;BME280;52491;45.900;6.346;2022-08-27T01:56:57;93622.53;;;27.50;38.88
65359;BME280;52491;45.900;6.346;2022-08-27T01:59:23;93620.16;;;27.48;38.73
65359;BME280;52491;45.900;6.346;2022-08-27T02:01:49;93617.78;;;27.47;38.82
65359;BME280;52491;45.900;6.346;2022-08-27T02:04:14;93616.69;;;27.48;38.92
65359;BME280;52491;45.900;6.346;2022-08-27T02:06:40;93620.16;;;27.48;38.67
65359;BME280;52491;45.900;6.346;2022-08-27T02:09:05;93617.78;;;27.47;38.95
65359;BME280;52491;45.900;6.346;2022-08-27T02:11:31;93620.44;;;27.47;39.08
65359;BME280;52491;45.900;6.346;2022-08-27T02:13:56;93616.69;;;27.48;38.83
65359;BME280;52491;45.900;6.346;2022-08-27T02:16:22;93614.03;;;27.48;38.74
65359;BME280;52491;45.900;6.346;2022-08-27T02:18:47;93610.78;;;27.51;38.78
65359;BME280;52491;45.900;6.346;2022-08-27T02:21:13;93604.38;;;27.47;38.69
65359;BME280;52491;45.900;6.346;2022-08-27T02:23:39;93609.75;;;27.47;38.76
65359;BME280;52491;45.900;6.346;2022-08-27T02:26:06;93609.75;;;27.47;38.46
65359;BME280;52491;45.900;6.346;2022-08-27T02:28:33;93615.09;;;27.47;38.82
65359;BME280;52491;45.900;6.346;2022-08-27T02:31:00;93612.72;;;27.45;38.50
65359;BME280;52491;45.900;6.346;2022-08-27T02:33:26;93613.50;;;27.45;38.71
65359;BME280;52491;45.900;6.346;2022-08-27T02:35:51;93611.09;;;27.44;38.60
65359;BME280;52491;45.900;6.346;2022-08-27T02:38:17;93611.91;;;27.44;38.64
65359;BME280;52491;45.900;6.346;2022-08-27T02:40:44;93604.97;;;27.43;38.64
65359;BME280;52491;45.900;6.346;2022-08-27T02:43:09;93601.19;;;27.44;38.52
65359;BME280;52491;45.900;6.346;2022-08-27T02:45:36;93608.44;;;27.44;38.59
65359;BME280;52491;45.900;6.346;2022-08-27T02:48:06;93606.84;;;27.43;38.67
65359;BME280;52491;45.900;6.346;2022-08-27T02:50:32;93604.97;;;27.43;38.67
65359;BME280;52491;45.900;6.346;2022-08-27T02:52:59;93606.84;;;27.43;38.75
65359;BME280;52491;45.900;6.346;2022-08-27T02:55:26;93598.03;;;27.42;38.48
65359;BME280;52491;45.900;6.346;2022-08-27T02:57:52;93596.41;;;27.41;38.55
65359;BME280;52491;45.900;6.346;2022-08-27T03:00:21;93596.41;;;27.41;38.72
65359;BME280;52491;45.900;6.346;2022-08-27T03:02:47;93602.59;;;27.42;38.53
65359;BME280;52491;45.900;6.346;2022-08-27T03:05:13;93598.03;;;27.42;38.48
65359;BME280;52491;45.900;6.346;2022-08-27T03:07:40;93597.72;;;27.44;38.45
65359;BME280;52491;45.900;6.346;2022-08-27T03:10:07;93594.25;;;27.43;38.71
65359;BME280;52491;45.900;6.346;2022-08-27T03:12:33;93595.84;;;27.44;38.59
65359;BME280;52491;45.900;6.346;2022-08-27T03:15:02;93597.44;;;27.45;38.50
65359;BME280;52491;45.900;6.346;2022-08-27T03:17:27;93591.00;;;27.47;38.36
65359;BME280;52491;45.900;6.346;2022-08-27T03:20:11;93590.78;;;27.43;38.44
65359;BME280;52491;45.900;6.346;2022-08-27T03:22:37;93580.34;;;27.41;38.34
65359;BME280;52491;45.900;6.346;2022-08-27T03:25:05;93583.03;;;27.41;38.70
65359;BME280;52491;45.900;6.346;2022-08-27T03:27:32;93577.97;;;27.40;38.45
65359;BME280;52491;45.900;6.346;2022-08-27T03:29:57;93584.41;;;27.39;38.49
65359;BME280;52491;45.900;6.346;2022-08-27T03:32:23;93581.72;;;27.39;38.70
65359;BME280;52491;45.900;6.346;2022-08-27T03:34:49;93572.63;;;27.40;38.46
65359;BME280;52491;45.900;6.346;2022-08-27T03:37:14;93569.44;;;27.38;38.60
65359;BME280;52491;45.900;6.346;2022-08-27T03:39:40;93570.22;;;27.38;38.50
65359;BME280;52491;45.900;6.346;2022-08-27T03:42:05;93567.06;;;27.36;38.50
65359;BME280;52491;45.900;6.346;2022-08-27T03:44:31;93568.63;;;27.37;38.58
65359;BME280;52491;45.900;6.346;2022-08-27T03:46:57;93571.84;;;27.39;38.29
65359;BME280;52491;45.900;6.346;2022-08-27T03:49:24;93573.41;;;27.40;38.16
65359;BME280;52491;45.900;6.346;2022-08-27T03:51:51;93568.84;;;27.41;38.16
65359;BME280;52491;45.900;6.346;2022-08-27T03:54:17;93576.59;;;27.42;38.44
65359;BME280;52491;45.900;6.346;2022-08-27T03:56:42;93572.31;;;27.41;38.36
65359;BME280;52491;45.900;6.346;2022-08-27T03:59:08;93565.91;;;27.42;38.36
65359;BME280;52491;45.900;6.346;2022-08-27T04:01:34;93558.94;;;27.41;38.05
65359;BME280;52491;45.900;6.346;2022-08-27T04:04:00;93560.25;;;27.44;38.20
65359;BME280;52491;45.900;6.346;2022-08-27T04:06:25;93558.66;;;27.43;38.01
65359;BME280;52491;45.900;6.346;2022-08-27T04:08:52;93554.09;;;27.43;38.15
65359;BME280;52491;45.900;6.346;2022-08-27T04:11:18;93555.19;;;27.42;38.15
65359;BME280;52491;45.900;6.346;2022-08-27T04:13:43;93555.97;;;27.43;38.17
65359;BME280;52491;45.900;6.346;2022-08-27T04:16:09;93562.44;;;27.42;37.85
65359;BME280;52491;45.900;6.346;2022-08-27T04:18:34;93554.69;;;27.40;37.97
65359;BME280;52491;45.900;6.346;2022-08-27T04:21:07;93559.75;;;27.42;37.90
65359;BME280;52491;45.900;6.346;2022-08-27T04:23:33;93557.34;;;27.40;37.99
65359;BME280;52491;45.900;6.346;2022-08-27T04:26:02;93566.19;;;27.41;37.84
65359;BME280;52491;45.900;6.346;2022-08-27T04:28:29;93558.72;;;27.38;37.89
65359;BME280;52491;45.900;6.346;2022-08-27T04:30:54;93561.13;;;27.39;37.84
65359;BME280;52491;45.900;6.346;2022-08-27T04:33:20;93561.13;;;27.39;37.99
65359;BME280;52491;45.900;6.346;2022-08-27T04:35:45;93561.13;;;27.39;37.93
65359;BME280;52491;45.900;6.346;2022-08-27T04:38:11;93555.25;;;27.37;38.11
65359;BME280;52491;45.900;6.346;2022-08-27T04:40:37;93557.94;;;27.37;37.91
65359;BME280;52491;45.900;6.346;2022-08-27T04:43:21;93560.69;;;27.32;37.75
65359;BME280;52491;45.900;6.346;2022-08-27T04:45:48;93574.28;;;27.36;37.71
65359;BME280;52491;45.900;6.346;2022-08-27T04:48:16;93573.22;;;27.37;37.54
65359;BME280;52491;45.900;6.346;2022-08-27T04:50:43;93567.06;;;27.36;37.58
65359;BME280;52491;45.900;6.346;2022-08-27T04:53:11;93568.13;;;27.35;37.80
65359;BME280;52491;45.900;6.346;2022-08-27T04:55:44;93578.31;;;27.33;37.79
65359;BME280;52491;45.900;6.346;2022-08-27T04:58:12;93573.47;;;27.35;37.57
65359;BME280;52491;45.900;6.346;2022-08-27T05:00:42;93578.91;;;27.30;37.77
65359;BME280;52491;45.900;6.346;2022-08-27T05:03:08;93575.44;;;27.30;37.77
65359;BME280;52491;45.900;6.346;2022-08-27T05:05:33;93576.22;;;27.30;37.92
65359;BME280;52491;45.900;6.346;2022-08-27T05:07:59;93583.47;;;27.30;37.61
65359;BME280;52491;45.900;6.346;2022-08-27T05:10:24;93576.53;;;27.29;37.70
65359;BME280;52491;45.900;6.346;2022-08-27T05:12:50;93573.84;;;27.29;37.84
65359;BME280;52491;45.900;6.346;2022-08-27T05:15:15;93571.16;;;27.29;37.61
65359;BME280;52491;45.900;6.346;2022-08-27T05:17:41;93574.13;;;27.27;37.55
65359;BME280;52491;45.900;6.346;2022-08-27T05:20:09;93568.78;;;27.27;37.84
65359;BME280;52491;45.900;6.346;2022-08-27T05:22:34;93574.13;;;27.27;37.78
65359;BME280;52491;45.900;6.346;2022-08-27T05:25:00;93581.38;;;27.27;37.44
65359;BME280;52491;45.900;6.346;2022-08-27T05:27:25;93582.44;;;27.26;37.67
65359;BME280;52491;45.900;6.346;2022-08-27T05:29:51;93587.81;;;27.26;37.52
65359;BME280;52491;45.900;6.346;2022-08-27T05:32:16;93583.53;;;27.25;37.44
65359;BME280;52491;45.900;6.346;2022-08-27T05:34:42;93583.25;;;27.26;37.73
65359;BME280;52491;45.900;6.346;2022-08-27T05:37:08;93588.59;;;27.26;37.54
65359;BME280;52491;45.900;6.346;2022-08-27T05:39:34;93582.94;;;27.28;37.73
65359;BME280;52491;45.900;6.346;2022-08-27T05:41:59;93585.63;;;27.28;37.44
65359;BME280;52491;45.900;6.346;2022-08-27T05:44:25;93582.16;;;27.27;37.34
65359;BME280;52491;45.900;6.346;2022-08-27T05:46:51;93583.25;;;27.26;37.29
65359;BME280;52491;45.900;6.346;2022-08-27T05:49:16;93587.00;;;27.25;37.39
65359;BME280;52491;45.900;6.346;2022-08-27T05:51:42;93582.44;;;27.26;37.24
65359;BME280;52491;45.900;6.346;2022-08-27T05:54:10;93578.97;;;27.25;37.40
65359;BME280;52491;45.900;6.346;2022-08-27T05:56:44;93575.22;;;27.26;37.44
65359;BME280;52491;45.900;6.346;2022-08-27T05:59:10;93577.09;;;27.26;37.33
65359;BME280;52491;45.900;6.346;2022-08-27T06:01:55;93573.91;;;27.23;37.41
65359;BME280;52491;45.900;6.346;2022-08-27T06:04:22;93575.50;;;27.25;37.31
65359;BME280;52491;45.900;6.346;2022-08-27T06:06:49;93574.19;;;27.22;37.31
65359;BME280;52491;45.900;6.346;2022-08-27T06:09:20;93570.72;;;27.21;37.46
65359;BME280;52491;45.900;6.346;2022-08-27T06:11:46;93569.94;;;27.21;37.32
65359;BME280;52491;45.900;6.346;2022-08-27T06:14:12;93571.50;;;27.22;37.60
65359;BME280;52491;45.900;6.346;2022-08-27T06:16:39;93564.56;;;27.21;37.37
65359;BME280;52491;45.900;6.346;2022-08-27T06:19:06;93572.59;;;27.21;37.58
65359;BME280;52491;45.900;6.346;2022-08-27T06:21:33;93566.16;;;27.22;37.48
65359;BME280;52491;45.900;6.346;2022-08-27T06:23:59;93560.00;;;27.21;37.43
65359;BME280;52491;45.900;6.346;2022-08-27T06:26:25;93569.94;;;27.21;37.31
65359;BME280;52491;45.900;6.346;2022-08-27T06:28:51;93560.81;;;27.22;37.41
65359;BME280;52491;45.900;6.346;2022-08-27T06:31:27;93566.97;;;27.22;37.21
65359;BME280;52491;45.900;6.346;2022-08-27T06:33:56;93566.16;;;27.22;37.24
65359;BME280;52491;45.900;6.346;2022-08-27T06:36:23;93560.00;;;27.21;37.36
65359;BME280;52491;45.900;6.346;2022-08-27T06:38:49;93566.16;;;27.22;37.30
65359;BME280;52491;45.900;6.346;2022-08-27T06:41:18;93564.00;;;27.24;37.47
65359;BME280;52491;45.900;6.346;2022-08-27T06:43:45;93559.72;;;27.23;37.51
65359;BME280;52491;45.900;6.346;2022-08-27T06:46:13;93560.53;;;27.23;37.24
65359;BME280;52491;45.900;6.346;2022-08-27T06:48:40;93563.19;;;27.23;37.26
65359;BME280;52491;45.900;6.346;2022-08-27T06:51:12;93561.31;;;27.24;37.29
65359;BME280;52491;45.900;6.346;2022-08-27T06:53:39;93558.94;;;27.22;37.29
65359;BME280;52491;45.900;6.346;2022-08-27T06:56:05;93560.81;;;27.22;37.31
65359;BME280;52491;45.900;6.346;2022-08-27T06:58:31;93547.72;;;27.20;37.53
65359;BME280;52491;45.900;6.346;2022-08-27T07:00:58;93546.63;;;27.21;37.51
65359;BME280;52491;45.900;6.346;2022-08-27T07:03:23;93550.69;;;27.19;37.57
65359;BME280;52491;45.900;6.346;2022-08-27T07:05:49;93554.38;;;27.23;37.37
65359;BME280;52491;45.900;6.346;2022-08-27T07:08:17;93551.72;;;27.23;37.56
65359;BME280;52491;45.900;6.346;2022-08-27T07:10:44;93554.38;;;27.23;37.65
65359;BME280;52491;45.900;6.346;2022-08-27T07:13:09;93547.66;;;27.26;37.95
65359;BME280;52491;45.900;6.346;2022-08-27T07:15:39;93554.81;;;27.30;37.60
65359;BME280;52491;45.900;6.346;2022-08-27T07:18:07;93560.47;;;27.29;38.00
65359;BME280;52491;45.900;6.346;2022-08-27T07:20:34;93551.34;;;27.30;37.93
65359;BME280;52491;45.900;6.346;2022-08-27T07:23:01;93551.34;;;27.30;37.83
65359;BME280;52491;45.900;6.346;2022-08-27T07:25:28;93554.53;;;27.32;37.94
65359;BME280;52491;45.900;6.346;2022-08-27T07:27:56;93544.41;;;27.29;38.11
65359;BME280;52491;45.900;6.346;2022-08-27T07:30:22;93550.81;;;27.28;38.10
65359;BME280;52491;45.900;6.346;2022-08-27T07:32:47;93549.75;;;27.29;38.22
65359;BME280;52491;45.900;6.346;2022-08-27T07:35:14;93547.88;;;27.29;38.45
65359;BME280;52491;45.900;6.346;2022-08-27T07:37:41;93550.53;;;27.29;38.41
65359;BME280;52491;45.900;6.346;2022-08-27T07:40:13;93555.09;;;27.29;38.55
65359;BME280;52491;45.900;6.346;2022-08-27T07:42:42;93550.53;;;27.29;38.59
65359;BME280;52491;45.900;6.346;2022-08-27T07:45:28;93552.44;;;27.29;38.32
65359;BME280;52491;45.900;6.346;2022-08-27T07:47:54;93554.31;;;27.28;38.51
65359;BME280;52491;45.900;6.346;2022-08-27T07:50:20;93557.00;;;27.28;38.50
65359;BME280;52491;45.900;6.346;2022-08-27T07:52:49;93554.81;;;27.30;38.49
65359;BME280;52491;45.900;6.346;2022-08-27T07:55:14;93558.56;;;27.29;38.50
65359;BME280;52491;45.900;6.346;2022-08-27T07:57:40;93556.47;;;27.26;38.68
65359;BME280;52491;45.900;6.346;2022-08-27T08:00:07;93556.28;;;27.22;38.60
65359;BME280;52491;45.900;6.346;2022-08-27T08:02:40;93563.47;;;27.22;38.71
65359;BME280;52491;45.900;6.346;2022-08-27T08:05:09;93566.16;;;27.22;38.61
65359;BME280;52491;45.900;6.346;2022-08-27T08:07:37;93561.09;;;27.20;38.74
65359;BME280;52491;45.900;6.346;2022-08-27T08:10:06;93565.09;;;27.23;38.64
65359;BME280;52491;45.900;6.346;2022-08-27T08:12:35;93563.72;;;27.26;38.73
65359;BME280;52491;45.900;6.346;2022-08-27T08:15:03;93558.38;;;27.26;38.74
65359;BME280;52491;45.900;6.346;2022-08-27T08:17:34;93562.91;;;27.25;38.87
65359;BME280;52491;45.900;6.346;2022-08-27T08:20:04;93557.53;;;27.25;38.79
65359;BME280;52491;45.900;6.346;2022-08-27T08:22:30;93559.44;;;27.25;39.25
65359;BME280;52491;45.900;6.346;2022-08-27T08:24:56;93554.06;;;27.25;39.13
65359;BME280;52491;45.900;6.346;2022-08-27T08:27:25;93556.75;;;27.25;39.23
65359;BME280;52491;45.900;6.346;2022-08-27T08:29:52;93552.72;;;27.27;39.15
65359;BME280;52491;45.900;6.346;2022-08-27T08:32:19;93559.69;;;27.28;39.49
65359;BME280;52491;45.900;6.346;2022-08-27T08:34:46;93554.31;;;27.28;39.42
65359;BME280;52491;45.900;6.346;2022-08-27T08:37:13;93552.13;;;27.30;39.29
65359;BME280;52491;45.900;6.346;2022-08-27T08:39:40;93551.34;;;27.30;39.26
65359;BME280;52491;45.900;6.346;2022-08-27T08:42:08;93552.91;;;27.31;39.52
65359;BME280;52491;45.900;6.346;2022-08-27T08:44:48;93546.78;;;27.30;39.30
65359;BME280;52491;45.900;6.346;2022-08-27T08:47:25;93544.88;;;27.31;39.23
65359;BME280;52491;45.900;6.346;2022-08-27T08:50:06;93547.56;;;27.31;39.53
65359;BME280;52491;45.900;6.346;2022-08-27T08:57:35;93542.72;;;27.33;39.48
65359;BME280;52491;45.900;6.346;2022-08-27T09:00:09;93531.03;;;27.29;39.72
65359;BME280;52491;45.900;6.346;2022-08-27T09:02:44;93537.09;;;27.34;39.66
65359;BME280;52491;45.900;6.346;2022-08-27T09:05:13;93531.75;;;27.34;39.73
65359;BME280;52491;45.900;6.346;2022-08-27T09:08:05;93535.22;;;27.35;39.73
65359;BME280;52491;45.900;6.346;2022-08-27T09:10:58;93521.03;;;27.34;39.62
65359;BME280;52491;45.900;6.346;2022-08-27T09:13:32;93516.47;;;27.35;39.56
65359;BME280;52491;45.900;6.346;2022-08-27T09:16:02;93517.78;;;27.37;39.51
65359;BME280;52491;45.900;6.346;2022-08-27T09:18:28;93523.91;;;27.38;39.59
65359;BME280;52491;45.900;6.346;2022-08-27T09:21:02;93512.13;;;27.39;39.45
65359;BME280;52491;45.900;6.346;2022-08-27T09:23:46;93509.16;;;27.40;39.28
65359;BME280;52491;45.900;6.346;2022-08-27T09:26:19;93511.06;;;27.40;39.20
65359;BME280;52491;45.900;6.346;2022-08-27T09:28:46;93510.47;;;27.43;39.46
65359;BME280;52491;45.900;6.346;2022-08-27T09:31:35;93507.78;;;27.43;39.10
65359;BME280;52491;45.900;6.346;2022-08-27T09:34:03;93506.41;;;27.45;39.17
65359;BME280;52491;45.900;6.346;2022-08-27T09:36:29;93511.47;;;27.47;39.06
65359;BME280;52491;45.900;6.346;2022-08-27T09:38:58;93508.50;;;27.49;39.36
65359;BME280;52491;45.900;6.346;2022-08-27T09:41:29;93503.66;;;27.51;39.12
65359;BME280;52491;45.900;6.346;2022-08-27T09:44:01;93499.88;;;27.52;39.26
65359;BME280;52491;45.900;6.346;2022-08-27T09:46:28;93504.47;;;27.51;39.32
65359;BME280;52491;45.900;6.346;2022-08-27T09:48:54;93503.34;;;27.52;39.53
65359;BME280;52491;45.900;6.346;2022-08-27T09:51:23;93506.81;;;27.53;39.53
65359;BME280;52491;45.900;6.346;2022-08-27T09:54:00;93505.75;;;27.54;39.44
65359;BME280;52491;45.900;6.346;2022-08-27T09:56:39;93500.88;;;27.56;39.22
65359;BME280;52491;45.900;6.346;2022-08-27T09:59:09;93505.69;;;27.59;39.35
65359;BME280;52491;45.900;6.346;2022-08-27T10:02:01;93509.94;;;27.60;39.58
65359;BME280;52491;45.900;6.346;2022-08-27T10:04:47;93500.03;;;27.60;39.35
65359;BME280;52491;45.900;6.346;2022-08-27T10:07:40;93511.03;;;27.59;39.45
65359;BME280;52491;45.900;6.346;2022-08-27T10:10:14;93496.34;;;27.56;39.30
65359;BME280;52491;45.900;6.346;2022-08-27T10:15:13;93496.63;;;27.55;39.30
65359;BME280;52491;45.900;6.346;2022-08-27T10:23:24;93491.78;;;27.57;39.27
65359;BME280;52491;45.900;6.346;2022-08-27T10:31:29;93483.69;;;27.62;39.07
65359;BME280;52491;45.900;6.346;2022-08-27T10:41:50;93477.94;;;27.68;39.03
65359;BME280;52491;45.900;6.346;2022-08-27T10:44:38;93477.94;;;27.68;39.00
65359;BME280;52491;45.900;6.346;2022-08-27T10:52:44;93467.41;;;27.72;38.81
65359;BME280;52491;45.900;6.346;2022-08-27T10:55:19;93470.59;;;27.74;39.19
65359;BME280;52491;45.900;6.346;2022-08-27T11:01:34;93463.38;;;27.75;39.18
65359;BME280;52491;45.900;6.346;2022-08-27T11:04:47;93462.78;;;27.78;39.28
65359;BME280;52491;45.900;6.346;2022-08-27T11:07:02;93464.38;;;27.79;39.05
65359;BME280;52491;45.900;6.346;2022-08-27T11:12:33;93452.59;;;27.80;39.08
65359;BME280;52491;45.900;6.346;2022-08-27T11:15:23;93462.53;;;27.79;39.43
65359;BME280;52491;45.900;6.346;2022-08-27T11:21:01;93467.56;;;27.81;39.21
65359;BME280;52491;45.900;6.346;2022-08-27T11:23:36;93457.38;;;27.83;39.37
65359;BME280;52491;45.900;6.346;2022-08-27T11:26:05;93445.34;;;27.80;39.49
65359;BME280;52491;45.900;6.346;2022-08-27T11:28:39;93459.75;;;27.84;39.36
65359;BME280;52491;45.900;6.346;2022-08-27T11:31:33;93448.22;;;27.84;39.22
65359;BME280;52491;45.900;6.346;2022-08-27T11:34:12;93452.78;;;27.83;39.28
65359;BME280;52491;45.900;6.346;2022-08-27T11:42:01;93455.41;;;27.88;39.54
65359;BME280;52491;45.900;6.346;2022-08-27T11:44:29;93453.50;;;27.89;39.48
65359;BME280;52491;45.900;6.346;2022-08-27T11:47:07;93465.31;;;27.88;39.35
65359;BME280;52491;45.900;6.346;2022-08-27T11:49:44;93452.72;;;27.88;39.34
65359;BME280;52491;45.900;6.346;2022-08-27T11:52:11;93459.66;;;27.89;39.44
65359;BME280;52491;45.900;6.346;2022-08-27T11:54:47;93457.78;;;27.90;39.42
65359;BME280;52491;45.900;6.346;2022-08-27T11:57:31;93451.34;;;27.91;39.23
65359;BME280;52491;45.900;6.346;2022-08-27T11:59:57;93458.56;;;27.91;39.47
65359;BME280;52491;45.900;6.346;2022-08-27T12:02:24;93457.78;;;27.90;39.27
65359;BME280;52491;45.900;6.346;2022-08-27T12:04:51;93439.81;;;27.91;39.36
65359;BME280;52491;45.900;6.346;2022-08-27T12:15:34;93447.34;;;27.88;39.41
65359;BME280;52491;45.900;6.346;2022-08-27T12:23:29;93446.25;;;27.89;39.66
65359;BME280;52491;45.900;6.346;2022-08-27T12:31:49;93441.22;;;27.88;39.63
65359;BME280;52491;45.900;6.346;2022-08-27T12:34:18;93442.00;;;27.88;39.40
65359;BME280;52491;45.900;6.346;2022-08-27T12:36:48;93453.81;;;27.87;39.72
65359;BME280;52491;45.900;6.346;2022-08-27T12:39:16;93455.13;;;27.90;39.55
65359;BME280;52491;45.900;6.346;2022-08-27T12:41:48;93459.66;;;27.89;39.75
65359;BME280;52491;45.900;6.346;2022-08-27T12:44:29;93449.75;;;27.90;39.72
65359;BME280;52491;45.900;6.346;2022-08-27T12:47:07;93437.44;;;27.89;39.79
65359;BME280;52491;45.900;6.346;2022-08-27T12:49:50;93433.69;;;27.90;39.46
65359;BME280;52491;45.900;6.346;2022-08-27T12:52:34;93445.97;;;27.91;39.60
65359;BME280;52491;45.900;6.346;2022-08-27T12:58:01;93437.16;;;27.91;39.53
65359;BME280;52491;45.900;6.346;2022-08-27T13:00:37;93433.69;;;27.90;39.56
65359;BME280;52491;45.900;6.346;2022-08-27T13:03:32;93432.06;;;27.89;39.52
65359;BME280;52491;45.900;6.346;2022-08-27T13:05:59;93426.44;;;27.91;39.82
65359;BME280;52491;45.900;6.346;2022-08-27T13:08:34;93430.69;;;27.92;39.87
65359;BME280;52491;45.900;6.346;2022-08-27T13:11:31;93431.78;;;27.91;39.73
65359;BME280;52491;45.900;6.346;2022-08-27T13:14:06;93425.03;;;27.93;39.66
65359;BME280;52491;45.900;6.346;2022-08-27T13:16:33;93425.03;;;27.93;39.51
65359;BME280;52491;45.900;6.346;2022-08-27T13:18:58;93429.03;;;27.96;39.60
65359;BME280;52491;45.900;6.346;2022-08-27T13:21:27;93426.81;;;27.98;39.65
65359;BME280;52491;45.900;6.346;2022-08-27T13:24:04;93427.13;;;27.96;39.67
65359;BME280;52491;45.900;6.346;2022-08-27T13:26:36;93421.47;;;27.98;39.63
65359;BME280;52491;45.900;6.346;2022-08-27T13:29:07;93412.16;;;27.95;39.61
65359;BME280;52491;45.900;6.346;2022-08-27T13:31:33;93412.94;;;27.96;39.63
65359;BME280;52491;45.900;6.346;2022-08-27T13:34:02;93410.53;;;27.94;39.91
65359;BME280;52491;45.900;6.346;2022-08-27T13:36:48;93418.59;;;27.94;39.69
65359;BME280;52491;45.900;6.346;2022-08-27T13:39:16;93411.66;;;27.93;39.63
65359;BME280;52491;45.900;6.346;2022-08-27T13:41:41;93411.34;;;27.95;39.78
65359;BME280;52491;45.900;6.346;2022-08-27T13:44:16;93407.59;;;27.96;39.91
65359;BME280;52491;45.900;6.346;2022-08-27T13:46:47;93410.75;;;27.98;39.66
65359;BME280;52491;45.900;6.346;2022-08-27T13:49:19;93399.75;;;27.99;39.69
65359;BME280;52491;45.900;6.346;2022-08-27T13:51:47;93411.56;;;27.98;39.81
65359;BME280;52491;45.900;6.346;2022-08-27T13:54:14;93413.94;;;28.00;39.58
65359;BME280;52491;45.900;6.346;2022-08-27T14:04:49;93394.38;;;27.99;39.68
65359;BME280;52491;45.900;6.346;2022-08-27T14:07:21;93397.56;;;28.01;39.78
65359;BME280;52491;45.900;6.346;2022-08-27T14:09:51;93403.72;;;28.02;39.72
65359;BME280;52491;45.900;6.346;2022-08-27T14:14:49;93394.56;;;28.03;39.73
65359;BME280;52491;45.900;6.346;2022-08-27T14:17:24;93385.47;;;28.04;39.61
65359;BME280;52491;45.900;6.346;2022-08-27T14:19:50;93394.56;;;28.03;39.73
65359;BME280;52491;45.900;6.346;2022-08-27T14:22:16;93391.09;;;28.02;39.67
65359;BME280;52491;45.900;6.346;2022-08-27T14:24:42;93392.69;;;28.03;39.79
65359;BME280;52491;45.900;6.346;2022-08-27T14:27:09;93389.22;;;28.03;39.77
65359;BME280;52491;45.900;6.346;2022-08-27T14:29:37;93392.69;;;28.03;39.63
65359;BME280;52491;45.900;6.346;2022-08-27T14:32:03;93394.28;;;28.04;39.62
65359;BME280;52491;45.900;6.346;2022-08-27T14:34:30;93395.06;;;28.05;39.83
65359;BME280;52491;45.900;6.346;2022-08-27T14:36:56;93392.69;;;28.03;39.55